Main page
METAR-TAF:

METAR-TAF

Airports :

Grenoble Alpes Isère Airport

Grenoble, France

latitude: 45-22N, longitude: 005-20E, elevation: 384 m

Current weather observation

The report was made 14 minutes ago, at 10:00 UTC
Wind 4 kt from the East/Northeast, varying between North and East/Southeast
Temperature 18°C
Humidity 59%
Pressure 1020 hPa
Visibility 10 km or more
no clouds below 1500 m and no cumulonimbus

METAR: LFLS 191000Z AUTO 07004KT 010V110 CAVOK 18/10 Q1020 NOSIG

Time: 12:14 (10:14 UTC)

Forecast

The report was made 2 hours and 14 minutes ago, at 08:00 UTC
Forecast valid from 19 at 09 UTC to 20 at 09 UTC
Wind 2 kt from variable directions
Visibility 10 km or more
no clouds below 1500 m and no cumulonimbus
Temporary
from 20 at 00 UTC to 20 at 08 UTC
Visibility: 5000 m

TAF: LFLS 190800Z 1909/2009 VRB02KT CAVOK TEMPO 2000/2008 5000 NSC

Weather observations and forecasts of more than 4000 airports (METAR and TAF reports).

The available stations are represented by yellow and red dots on the map.

Hover mouse over dot to see the name of the station.

Then click to see weather observations and forecasts.

To change the map : click on the green buttons with a black cross to zoom in, on the green button with a dash to zoom out, or on the green arrows for adjacent maps.


METAR-TAF: